Time;durP1;ratioP1;P1;durP2;ratioP2;P2;SDS_P1;SDS_P2;PMS_P1;PMS_P2;Temp;Humidity;BMP_temperature;BMP_pressure;BME280_temperature;BME280_humidity;BME280_pressure;Samples;Min_cycle;Max_cycle;Signal;HPM_P1;HPM_P2
2023/06/18 00:01:00;;;;;;;7.93;4.43;;;;;;;17.03;67.53;99729.06;4493945;31;32980;-82
2023/06/18 00:03:28;;;;;;;7.07;4.50;;;;;;;17.18;67.21;99719.72;4482832;31;33585;-81
2023/06/18 00:05:56;;;;;;;8.48;4.60;;;;;;;16.93;68.16;99721.91;4469065;32;33478;-82
2023/06/18 00:08:23;;;;;;;7.47;4.97;;;;;;;16.96;68.22;99719.37;4486677;31;33736;-82
2023/06/18 00:10:52;;;;;;;8.15;4.57;;;;;;;17.28;67.03;99713.78;4483482;31;33359;-82
2023/06/18 00:13:20;;;;;;;7.03;4.70;;;;;;;17.71;65.54;99709.19;4482090;31;34434;-82
2023/06/18 00:15:47;;;;;;;7.95;4.70;;;;;;;17.06;67.91;99713.44;4482768;31;33530;-82
2023/06/18 00:18:15;;;;;;;7.70;4.95;;;;;;;17.36;67.00;99709.53;4483949;31;33943;-82
2023/06/18 00:20:43;;;;;;;7.03;4.80;;;;;;;17.05;68.00;99703.81;4480341;31;33551;-82
2023/06/18 00:23:10;;;;;;;8.25;5.50;;;;;;;17.12;68.13;99711.78;4482045;31;33498;-82
2023/06/18 00:25:38;;;;;;;7.63;5.40;;;;;;;17.10;67.89;99704.78;4470065;31;33779;-81
2023/06/18 00:28:05;;;;;;;7.50;5.00;;;;;;;16.85;69.33;99706.09;4488763;31;34500;-83
2023/06/18 00:30:33;;;;;;;8.52;5.55;;;;;;;17.60;66.94;99706.44;4486877;31;33813;-82
2023/06/18 00:33:00;;;;;;;8.75;5.80;;;;;;;17.24;68.59;99706.75;4493337;31;33717;-81
2023/06/18 00:35:28;;;;;;;9.13;5.37;;;;;;;17.12;69.69;99714.41;4477678;32;33935;-82
2023/06/18 00:37:55;;;;;;;8.07;5.47;;;;;;;17.16;69.48;99713.59;4483376;31;34381;-81
2023/06/18 00:40:24;;;;;;;9.03;5.57;;;;;;;16.65;71.28;99707.41;4482216;31;33672;-82
2023/06/18 00:42:52;;;;;;;8.25;5.50;;;;;;;16.75;71.10;99711.97;4493149;31;34032;-81
2023/06/18 00:45:20;;;;;;;8.90;5.70;;;;;;;16.79;71.09;99715.53;4485627;31;33531;-82
2023/06/18 00:47:48;;;;;;;8.45;5.22;;;;;;;17.27;69.82;99712.03;4483297;31;33715;-83
2023/06/18 00:50:17;;;;;;;8.82;5.25;;;;;;;17.94;67.02;99708.69;4479524;31;33873;-82
2023/06/18 00:52:47;;;;;;;9.00;5.12;;;;;;;17.85;66.99;99704.22;4459271;32;33215;-81
2023/06/18 00:55:20;;;;;;;6.80;4.70;;;;;;;18.34;65.21;99710.06;4483238;31;34206;-83
2023/06/18 00:57:49;;;;;;;8.18;5.20;;;;;;;18.13;65.83;99709.81;4459620;31;31555;-82
2023/06/18 01:00:20;;;;;;;8.73;4.97;;;;;;;17.22;69.02;99711.06;4492966;31;32870;-82
2023/06/18 01:02:49;;;;;;;8.10;5.37;;;;;;;16.69;71.74;99710.13;4482677;31;32656;-82
2023/06/18 01:05:20;;;;;;;8.20;5.65;;;;;;;16.33;73.14;99714.66;4484002;31;33061;-82
2023/06/18 01:07:48;;;;;;;8.73;5.47;;;;;;;16.61;71.86;99711.72;4483523;31;33627;-82
2023/06/18 01:10:17;;;;;;;9.23;5.50;;;;;;;16.49;72.64;99708.84;4467486;31;33863;-82
2023/06/18 01:12:48;;;;;;;9.00;5.00;;;;;;;16.38;73.64;99719.13;4468551;31;33111;-82
2023/06/18 01:15:17;;;;;;;7.45;5.22;;;;;;;17.34;70.20;99711.25;4457384;31;33770;-81
2023/06/18 01:17:48;;;;;;;7.87;5.10;;;;;;;17.81;67.73;99716.34;4486237;31;34031;-82
2023/06/18 01:20:17;;;;;;;8.48;5.15;;;;;;;18.52;65.15;99714.62;4474525;31;32627;-82
2023/06/18 01:23:06;;;;;;;7.30;4.62;;;;;;;18.53;64.83;99719.03;4482237;31;33426;-82
2023/06/18 01:25:37;;;;;;;8.55;5.20;;;;;;;18.95;62.82;99715.12;4487582;31;33142;-81
2023/06/18 01:28:10;;;;;;;7.90;5.30;;;;;;;18.86;62.90;99715.03;4462936;31;34023;-82
2023/06/18 01:30:38;;;;;;;7.62;5.43;;;;;;;19.18;61.21;99709.19;4473910;31;33656;-82
2023/06/18 01:33:12;;;;;;;8.35;5.53;;;;;;;18.98;61.93;99712.50;4485948;31;33780;-81
2023/06/18 01:35:41;;;;;;;8.05;5.75;;;;;;;18.69;62.91;99712.19;4478177;31;31662;-81
2023/06/18 01:38:43;;;;;;;9.82;6.07;;;;;;;18.24;64.96;99714.31;4489741;31;34534;-82
2023/06/18 01:41:13;;;;;;;8.55;6.35;;;;;;;16.81;71.22;99724.28;4446700;32;32152;-82
2023/06/18 01:43:45;;;;;;;9.20;6.10;;;;;;;16.40;72.85;99721.75;4470750;31;32725;-82
2023/06/18 01:46:24;;;;;;;10.15;6.70;;;;;;;15.92;74.61;99720.78;4488061;31;32686;-82
2023/06/18 01:48:56;;;;;;;8.90;6.03;;;;;;;16.22;73.83;99728.34;4471086;31;33053;-81
2023/06/18 01:51:24;;;;;;;10.00;6.25;;;;;;;16.12;74.11;99726.41;4484625;31;32646;-80
2023/06/18 01:53:55;;;;;;;8.13;6.05;;;;;;;16.17;73.88;99719.56;4470945;32;33404;-82
2023/06/18 01:56:23;;;;;;;10.52;6.25;;;;;;;16.53;72.31;99723.75;4491534;31;33257;-82
2023/06/18 01:58:51;;;;;;;8.57;5.90;;;;;;;16.34;73.17;99730.38;4469300;32;33400;-82
2023/06/18 02:01:20;;;;;;;8.20;5.80;;;;;;;16.50;72.75;99723.72;4469681;31;32711;-81
2023/06/18 02:03:48;;;;;;;10.48;6.18;;;;;;;16.17;74.13;99730.03;4485815;31;34051;-82
2023/06/18 02:06:15;;;;;;;8.10;5.97;;;;;;;16.30;73.74;99732.03;4491243;31;33523;-82
2023/06/18 02:08:43;;;;;;;9.82;6.22;;;;;;;16.21;73.81;99726.63;4487096;31;33954;-81
2023/06/18 02:11:11;;;;;;;8.57;5.68;;;;;;;16.49;72.92;99733.25;4488578;31;33434;-80
2023/06/18 02:13:38;;;;;;;8.02;5.53;;;;;;;16.03;74.50;99732.34;4485392;31;33358;-81
2023/06/18 02:16:05;;;;;;;8.07;5.65;;;;;;;16.05;74.61;99737.56;4484637;31;33236;-82
2023/06/18 02:18:35;;;;;;;7.20;5.40;;;;;;;16.24;73.99;99736.25;4489506;31;34430;-82
2023/06/18 02:21:04;;;;;;;8.30;5.80;;;;;;;16.35;73.72;99734.72;4494986;31;33323;-80
2023/06/18 02:23:32;;;;;;;9.80;6.32;;;;;;;16.15;74.84;99731.72;4483326;31;34713;-81
2023/06/18 02:26:00;;;;;;;9.95;6.10;;;;;;;16.28;74.40;99731.12;4491467;31;33713;-81
2023/06/18 02:28:27;;;;;;;10.18;6.10;;;;;;;16.60;72.75;99730.88;4489558;31;34216;-82
2023/06/18 02:30:55;;;;;;;9.70;5.80;;;;;;;16.65;72.40;99734.47;4494417;31;33410;-82
2023/06/18 02:33:23;;;;;;;8.38;5.90;;;;;;;16.86;72.41;99740.97;4485036;31;33270;-81
2023/06/18 02:35:50;;;;;;;8.45;6.00;;;;;;;16.75;72.45;99734.66;4489515;31;33832;-82
2023/06/18 02:38:18;;;;;;;8.90;6.33;;;;;;;16.82;72.33;99741.75;4483780;32;34578;-82
2023/06/18 02:40:46;;;;;;;7.43;5.43;;;;;;;17.33;70.23;99746.16;4485303;31;33346;-81
2023/06/18 02:43:14;;;;;;;8.88;5.85;;;;;;;17.18;70.90;99751.16;4483660;32;33243;-81
2023/06/18 02:45:42;;;;;;;9.80;6.25;;;;;;;17.87;67.88;99740.03;4487419;31;34447;-82
2023/06/18 02:48:10;;;;;;;9.85;5.95;;;;;;;17.22;70.38;99748.59;4491283;31;34474;-83
2023/06/18 02:50:37;;;;;;;9.35;6.40;;;;;;;17.04;71.04;99754.41;4492661;31;33387;-83
2023/06/18 02:53:05;;;;;;;8.88;6.15;;;;;;;17.47;69.86;99749.87;4493233;31;33764;-82
2023/06/18 02:55:33;;;;;;;9.63;6.05;;;;;;;15.95;75.82;99764.34;4489228;31;34583;-83
2023/06/18 02:58:02;;;;;;;9.07;6.40;;;;;;;16.24;75.24;99760.62;4483674;32;34336;-82
2023/06/18 03:00:30;;;;;;;10.50;6.78;;;;;;;16.22;75.29;99769.31;4484520;31;33021;-82
2023/06/18 03:02:58;;;;;;;10.40;6.70;;;;;;;15.86;77.76;99765.91;4487250;31;33415;-81
2023/06/18 03:05:26;;;;;;;9.23;6.53;;;;;;;16.16;76.17;99770.06;4486759;31;34684;-81
2023/06/18 03:07:53;;;;;;;10.57;6.43;;;;;;;16.70;73.08;99768.53;4487958;31;33598;-81
2023/06/18 03:10:21;;;;;;;9.10;6.20;;;;;;;17.34;71.13;99774.09;4461198;32;31600;-82
2023/06/18 03:12:50;;;;;;;9.32;6.28;;;;;;;17.57;69.58;99770.97;4492699;31;33700;-81
2023/06/18 03:15:19;;;;;;;7.70;5.77;;;;;;;16.95;72.49;99772.53;4467612;32;33577;-82
2023/06/18 03:17:46;;;;;;;9.88;6.37;;;;;;;17.90;68.63;99770.63;4484728;31;33801;-81
2023/06/18 03:20:15;;;;;;;9.70;6.72;;;;;;;17.23;70.87;99775.62;4489767;31;33298;-82
2023/06/18 03:22:44;;;;;;;10.25;7.00;;;;;;;16.31;75.34;99775.59;4483763;31;33100;-82
2023/06/18 03:25:12;;;;;;;9.63;6.65;;;;;;;16.17;75.28;99771.84;4488477;31;34456;-81
2023/06/18 03:27:39;;;;;;;9.15;7.12;;;;;;;15.91;76.59;99779.94;4491384;31;33493;-80
2023/06/18 03:30:08;;;;;;;10.70;7.17;;;;;;;15.97;76.59;99783.56;4472713;32;33346;-82
2023/06/18 03:32:36;;;;;;;9.68;6.72;;;;;;;15.59;78.28;99780.87;4484361;31;34241;-81
2023/06/18 03:35:04;;;;;;;8.55;6.10;;;;;;;15.72;78.04;99778.63;4480519;31;33478;-82
2023/06/18 03:37:32;;;;;;;9.25;6.20;;;;;;;16.54;74.64;99782.19;4486958;31;34471;-82
2023/06/18 03:40:03;;;;;;;8.00;5.80;;;;;;;16.67;73.06;99779.84;4488777;31;33514;-82
2023/06/18 03:42:30;;;;;;;9.05;6.40;;;;;;;16.65;73.33;99776.31;4489494;31;34299;-81
2023/06/18 03:44:58;;;;;;;8.77;5.97;;;;;;;16.50;73.99;99781.22;4489497;31;33473;-82
2023/06/18 03:47:26;;;;;;;9.43;6.53;;;;;;;16.89;72.65;99781.16;4484749;31;34504;-82
2023/06/18 03:49:54;;;;;;;8.83;6.33;;;;;;;16.38;74.56;99780.97;4493198;31;33887;-81
2023/06/18 03:52:21;;;;;;;9.50;6.30;;;;;;;16.38;74.76;99787.09;4485294;31;34531;-82
2023/06/18 03:54:49;;;;;;;9.90;6.30;;;;;;;16.66;73.75;99783.28;4479443;31;31847;-82
2023/06/18 03:57:17;;;;;;;8.73;6.43;;;;;;;16.86;73.75;99790.66;4484686;31;33773;-82
2023/06/18 03:59:45;;;;;;;9.55;6.15;;;;;;;16.66;74.33;99790.25;4471429;31;33237;-81
2023/06/18 04:02:15;;;;;;;9.65;6.32;;;;;;;16.50;75.33;99781.22;4490645;31;33621;-82
2023/06/18 04:04:44;;;;;;;9.93;6.80;;;;;;;16.73;74.91;99786.03;4488670;31;33671;-81
2023/06/18 04:07:12;;;;;;;9.77;6.57;;;;;;;16.65;74.89;99781.53;4490590;31;34069;-83
2023/06/18 04:09:39;;;;;;;10.80;6.50;;;;;;;16.87;74.41;99787.22;4474684;32;33063;-84
2023/06/18 04:12:08;;;;;;;11.05;6.22;;;;;;;17.01;73.58;99790.97;4486725;31;33899;-81
2023/06/18 04:14:36;;;;;;;8.70;6.18;;;;;;;17.41;71.82;99791.69;4482344;31;34740;-82
2023/06/18 04:17:04;;;;;;;10.13;6.37;;;;;;;17.33;71.47;99803.75;4482886;31;33540;-82
2023/06/18 04:19:32;;;;;;;9.73;6.40;;;;;;;16.98;72.83;99796.16;4486301;31;33196;-83
2023/06/18 04:22:00;;;;;;;9.10;6.78;;;;;;;16.63;75.68;99792.81;4482176;31;34467;-82
2023/06/18 04:24:29;;;;;;;9.82;6.35;;;;;;;17.67;71.40;99793.84;4482214;32;33812;-83
2023/06/18 04:26:57;;;;;;;9.38;6.20;;;;;;;17.29;72.35;99801.94;4482015;31;34610;-82
2023/06/18 04:29:25;;;;;;;9.35;6.00;;;;;;;17.57;71.79;99803.28;4485010;31;32000;-82
2023/06/18 04:31:53;;;;;;;9.73;5.93;;;;;;;18.24;69.11;99792.97;4485827;31;34476;-82
2023/06/18 04:34:21;;;;;;;7.97;6.00;;;;;;;18.26;69.38;99795.63;4469653;32;33709;-82
2023/06/18 04:36:49;;;;;;;8.43;6.30;;;;;;;17.44;72.13;99804.84;4488522;31;34141;-83
2023/06/18 04:39:17;;;;;;;11.10;6.10;;;;;;;18.21;70.03;99802.53;4483557;31;33835;-81
2023/06/18 04:41:45;;;;;;;10.18;6.40;;;;;;;16.94;74.41;99807.44;4486119;31;33784;-84
2023/06/18 04:44:13;;;;;;;10.27;6.10;;;;;;;18.01;70.43;99804.88;4493015;31;33647;-81
2023/06/18 04:46:41;;;;;;;9.65;6.28;;;;;;;17.95;70.82;99810.03;4479376;31;34285;-82
2023/06/18 04:49:09;;;;;;;10.68;6.18;;;;;;;17.79;70.99;99809.75;4483733;31;33521;-84
2023/06/18 04:51:39;;;;;;;11.60;6.23;;;;;;;18.22;68.88;99807.81;4486544;31;34444;-84
2023/06/18 04:54:07;;;;;;;11.02;6.45;;;;;;;18.37;68.18;99808.84;4493647;31;34218;-82
2023/06/18 04:56:35;;;;;;;8.90;6.10;;;;;;;17.36;71.80;99819.50;4488326;31;34299;-82
2023/06/18 04:59:02;;;;;;;11.23;6.30;;;;;;;18.49;67.45;99814.28;4485145;31;33553;-82
2023/06/18 05:01:30;;;;;;;10.15;6.68;;;;;;;18.86;66.93;99814.75;4490191;31;33466;-82
2023/06/18 05:03:57;;;;;;;10.73;6.23;;;;;;;19.16;66.17;99821.19;4489280;31;34541;-82
2023/06/18 05:06:25;;;;;;;9.85;6.05;;;;;;;18.59;68.48;99821.41;4491937;31;33156;-81
2023/06/18 05:08:53;;;;;;;11.63;6.22;;;;;;;18.82;66.86;99821.72;4492322;31;31619;-81
2023/06/18 05:11:22;;;;;;;10.27;5.80;;;;;;;18.42;68.32;99833.41;4496306;31;33818;-82
2023/06/18 05:13:49;;;;;;;11.38;5.90;;;;;;;18.87;67.92;99834.88;4491720;31;33822;-82
2023/06/18 05:16:17;;;;;;;9.52;5.50;;;;;;;19.56;65.57;99839.97;4498307;31;33925;-83
2023/06/18 05:18:46;;;;;;;8.93;5.80;;;;;;;18.63;66.99;99836.31;4482318;31;33499;-84
2023/06/18 05:21:15;;;;;;;8.68;5.53;;;;;;;18.23;69.34;99835.81;4486709;31;33404;-82
2023/06/18 05:23:44;;;;;;;8.63;5.62;;;;;;;17.89;69.21;99844.88;4488643;31;34756;-83
2023/06/18 05:26:11;;;;;;;7.78;5.97;;;;;;;18.94;66.83;99839.34;4488134;31;33574;-83
2023/06/18 05:28:40;;;;;;;9.48;5.60;;;;;;;18.04;69.38;99839.88;4479290;31;33278;-82
2023/06/18 05:31:07;;;;;;;8.60;5.75;;;;;;;18.59;68.75;99845.00;4487624;31;34499;-82
2023/06/18 05:33:36;;;;;;;9.27;5.60;;;;;;;19.09;67.64;99848.28;4490741;31;34614;-82
2023/06/18 05:36:04;;;;;;;7.87;5.45;;;;;;;18.23;70.37;99846.28;4497083;31;33712;-81
2023/06/18 05:38:32;;;;;;;8.35;5.20;;;;;;;18.76;69.64;99844.34;4496150;31;33443;-82
2023/06/18 05:41:00;;;;;;;8.43;5.65;;;;;;;19.56;66.57;99847.84;4477279;31;32028;-82
2023/06/18 05:43:28;;;;;;;8.60;5.43;;;;;;;18.24;70.55;99850.66;4484686;31;34475;-81
2023/06/18 05:45:55;;;;;;;9.27;5.85;;;;;;;19.80;66.15;99863.00;4492199;31;33751;-81
2023/06/18 05:48:23;;;;;;;7.85;5.47;;;;;;;19.67;66.59;99864.59;4480155;31;33097;-82
2023/06/18 05:50:52;;;;;;;8.75;5.85;;;;;;;19.50;67.07;99858.31;4493562;31;33676;-82
2023/06/18 05:53:19;;;;;;;8.60;5.82;;;;;;;18.69;69.68;99858.25;4492663;31;34509;-83
2023/06/18 05:55:47;;;;;;;7.72;5.47;;;;;;;18.94;69.61;99860.34;4484323;31;33869;-81
2023/06/18 05:58:15;;;;;;;7.90;5.30;;;;;;;19.94;66.51;99853.47;4485378;31;33677;-81
2023/06/18 06:00:43;;;;;;;7.57;5.40;;;;;;;19.76;65.49;99864.72;4483689;31;33812;-82
2023/06/18 06:03:11;;;;;;;8.60;5.47;;;;;;;20.26;64.20;99860.69;4487013;31;33163;-81
2023/06/18 06:05:38;;;;;;;7.10;4.82;;;;;;;20.17;64.62;99861.50;4485422;31;33534;-81
2023/06/18 06:08:06;;;;;;;7.80;5.35;;;;;;;20.77;62.29;99858.38;4494021;31;33286;-80
2023/06/18 06:10:35;;;;;;;7.97;5.20;;;;;;;21.11;61.36;99863.75;4489908;31;34056;-81
2023/06/18 06:13:03;;;;;;;7.60;5.03;;;;;;;21.15;60.49;99865.50;4483760;32;34544;-83
2023/06/18 06:15:31;;;;;;;7.62;5.25;;;;;;;19.41;66.08;99865.25;4482637;31;34059;-83
2023/06/18 06:18:01;;;;;;;8.68;5.43;;;;;;;20.37;63.57;99871.28;4483549;31;33165;-83
2023/06/18 06:20:29;;;;;;;8.77;5.40;;;;;;;20.20;62.08;99877.31;4487243;31;34281;-83
2023/06/18 06:22:57;;;;;;;7.85;5.10;;;;;;;19.84;63.63;99873.53;4493347;31;33759;-82
2023/06/18 06:25:25;;;;;;;8.52;5.40;;;;;;;20.43;61.34;99869.56;4492826;31;33679;-82
2023/06/18 06:27:53;;;;;;;8.70;5.57;;;;;;;20.60;62.58;99867.06;4489144;31;33991;-82
2023/06/18 06:30:20;;;;;;;7.63;5.13;;;;;;;20.69;62.01;99868.88;4490048;31;33534;-81
2023/06/18 06:32:50;;;;;;;8.70;5.87;;;;;;;21.19;60.79;99867.28;4493168;31;33494;-80
2023/06/18 06:35:17;;;;;;;8.20;5.28;;;;;;;21.32;59.46;99866.41;4487279;31;33569;-81
2023/06/18 06:37:46;;;;;;;6.97;5.12;;;;;;;21.70;58.48;99876.19;4486874;31;32799;-81
2023/06/18 06:40:14;;;;;;;8.02;5.50;;;;;;;22.15;56.89;99868.25;4488989;31;33351;-81
2023/06/18 06:42:42;;;;;;;8.43;5.28;;;;;;;21.65;59.19;99872.66;4485276;31;33543;-82
2023/06/18 06:45:15;;;;;;;7.65;5.35;;;;;;;21.89;57.67;99870.94;4493897;31;33002;-81
2023/06/18 06:47:43;;;;;;;6.90;5.28;;;;;;;20.57;61.07;99874.00;4483409;32;33262;-80
2023/06/18 06:50:12;;;;;;;8.40;5.10;;;;;;;21.87;58.90;99877.97;4486182;31;33908;-82
2023/06/18 06:52:39;;;;;;;7.00;4.85;;;;;;;22.64;55.14;99872.56;4485312;31;34141;-80
2023/06/18 06:55:08;;;;;;;7.40;4.72;;;;;;;22.89;54.75;99873.34;4489907;31;34070;-80
2023/06/18 06:57:35;;;;;;;7.50;5.03;;;;;;;21.70;57.03;99875.31;4486121;31;33214;-81
2023/06/18 07:00:07;;;;;;;7.18;4.80;;;;;;;21.83;56.94;99870.91;4487732;31;33896;-81
2023/06/18 07:02:34;;;;;;;7.85;4.82;;;;;;;21.57;58.78;99863.87;4489247;31;34219;-81
2023/06/18 07:05:02;;;;;;;8.85;5.40;;;;;;;21.55;58.14;99870.91;4482484;31;33845;-82
2023/06/18 07:07:33;;;;;;;8.05;4.82;;;;;;;21.98;57.31;99865.63;4474423;31;33171;-82
2023/06/18 07:10:02;;;;;;;7.05;4.45;;;;;;;22.14;55.39;99867.38;4485944;31;33831;-81
2023/06/18 07:12:29;;;;;;;7.78;4.97;;;;;;;22.66;54.80;99876.09;4485379;31;34322;-81
2023/06/18 07:14:57;;;;;;;5.68;4.12;;;;;;;23.08;51.69;99868.91;4483641;31;33705;-81
2023/06/18 07:17:25;;;;;;;6.28;4.37;;;;;;;23.73;52.37;99870.22;4492392;31;33100;-81
2023/06/18 07:19:54;;;;;;;7.47;4.68;;;;;;;23.21;50.52;99860.00;4480076;32;33151;-81
2023/06/18 07:22:22;;;;;;;7.28;4.07;;;;;;;22.78;51.35;99865.50;4482194;31;33797;-83
2023/06/18 07:24:50;;;;;;;8.80;4.57;;;;;;;22.83;52.51;99858.44;4483489;31;33844;-82
2023/06/18 07:27:17;;;;;;;7.15;4.47;;;;;;;23.47;51.89;99862.50;4485138;31;33602;-82
2023/06/18 07:29:45;;;;;;;6.17;4.00;;;;;;;22.23;52.59;99860.31;4486845;31;33833;-83
2023/06/18 07:32:12;;;;;;;6.10;4.30;;;;;;;23.21;50.55;99860.00;4487734;31;33219;-84
2023/06/18 07:34:40;;;;;;;5.47;3.93;;;;;;;22.90;50.92;99857.50;4483416;31;33861;-87
2023/06/18 07:37:07;;;;;;;6.47;4.03;;;;;;;22.40;52.23;99857.69;4483028;32;33648;-85
2023/06/18 07:39:35;;;;;;;5.47;3.40;;;;;;;23.21;50.04;99854.72;4483459;31;33770;-82
2023/06/18 07:42:04;;;;;;;5.57;3.28;;;;;;;23.91;44.94;99842.81;4487759;31;33883;-84
2023/06/18 07:44:31;;;;;;;6.80;3.70;;;;;;;24.31;43.73;99846.81;4490138;31;33672;-82
2023/06/18 07:47:01;;;;;;;5.75;3.22;;;;;;;23.67;47.12;99853.56;4475210;32;33955;-83
2023/06/18 07:49:28;;;;;;;5.25;3.50;;;;;;;23.75;45.01;99857.00;4496212;31;34498;-84
2023/06/18 07:51:55;;;;;;;;;;;;;;;25.33;42.55;99848.25;4484319;32;33558;-83
2023/06/18 07:54:23;;;;;;;;;;;;;;;26.90;40.65;99840.16;4484871;32;34711;-86
2023/06/18 07:56:50;;;;;;;;;;;;;;;27.36;36.45;99841.81;4484785;32;33205;-83
2023/06/18 07:59:17;;;;;;;;;;;;;;;25.34;41.96;99852.62;4490477;31;34800;-83
2023/06/18 08:01:45;;;;;;;;;;;;;;;26.39;40.11;99842.03;4484716;32;33516;-84
2023/06/18 08:04:12;;;;;;;;;;;;;;;27.73;37.79;99846.25;4485231;31;34865;-84
2023/06/18 08:06:40;;;;;;;;;;;;;;;28.13;36.21;99837.25;4488680;31;32650;-83
2023/06/18 08:09:07;;;;;;;;;;;;;;;28.53;36.77;99838.84;4497373;31;34942;-84
2023/06/18 08:11:35;;;;;;;;;;;;;;;29.17;36.03;99841.44;4490912;31;32602;-84
2023/06/18 08:14:03;;;;;;;;;;;;;;;28.61;35.56;99836.84;4484635;32;34228;-82
2023/06/18 08:16:30;;;;;;;;;;;;;;;25.78;38.91;99837.81;4484633;32;34006;-83
2023/06/18 08:18:58;;;;;;;;;;;;;;;27.57;37.38;99835.97;4485540;31;34303;-83
2023/06/18 08:21:25;;;;;;;;;;;;;;;27.71;36.01;99837.41;4486737;31;34153;-84
2023/06/18 08:23:52;;;;;;;;;;;;;;;28.37;35.12;99833.03;4494593;31;33920;-83
2023/06/18 08:26:22;;;;;;;;;;;;;;;29.11;34.23;99831.78;4492631;31;33449;-85
2023/06/18 08:28:50;;;;;;;;;;;;;;;27.97;36.35;99831.44;4461604;31;32689;-84
2023/06/18 08:31:17;;;;;;;;;;;;;;;26.92;38.94;99835.69;4486693;31;34859;-82
2023/06/18 08:33:45;;;;;;;;;;;;;;;27.31;37.57;99838.38;4495894;31;34501;-85
2023/06/18 08:36:12;;;;;;;;;;;;;;;26.46;40.28;99834.81;4478022;31;32784;-83
2023/06/18 08:38:39;;;;;;;;;;;;;;;26.60;38.88;99829.28;4497720;31;34244;-84
2023/06/18 08:41:09;;;;;;;;;;;;;;;26.36;40.54;99830.59;4481828;31;34905;-85
2023/06/18 08:43:38;;;;;;;;;;;;;;;27.44;37.67;99834.50;4488793;31;33839;-84
2023/06/18 08:46:08;;;;;;;;;;;;;;;28.07;36.27;99821.44;4482298;31;33905;-85
2023/06/18 08:48:48;;;;;;;;;;;;;;;28.72;34.12;99821.38;4496183;31;34806;-82
2023/06/18 08:51:16;;;;;;;;;;;;;;;29.15;33.05;99827.28;4474924;31;33963;-83
2023/06/18 08:53:53;;;;;;;;;;;;;;;29.78;32.12;99822.56;4496070;31;33268;-83
2023/06/18 08:56:21;;;;;;;;;;;;;;;29.56;30.62;99827.72;4485324;31;33546;-84
2023/06/18 08:58:50;;;;;;;;;;;;;;;26.56;36.00;99825.78;4486381;31;33174;-83
2023/06/18 09:01:18;;;;;;;;;;;;;;;28.52;34.73;99829.12;4481465;31;33988;-83
2023/06/18 09:03:45;;;;;;;;;;;;;;;27.85;36.23;99841.50;4487153;31;34322;-84
2023/06/18 09:06:13;;;;;;;;;;;;;;;28.96;35.51;99832.25;4463114;31;33814;-83
2023/06/18 09:08:40;;;;;;;;;;;;;;;28.94;34.09;99834.09;4487991;31;34156;-83
2023/06/18 09:11:07;;;;;;;;;;;;;;;29.00;33.82;99826.78;4487112;31;34212;-82
2023/06/18 09:13:38;;;;;;;;;;;;;;;29.17;32.30;99820.09;4485692;32;34639;-83
2023/06/18 09:16:05;;;;;;;;;;;;;;;28.17;31.64;99820.28;4477524;32;33152;-84
2023/06/18 09:18:32;;;;;;;;;;;;;;;28.83;30.30;99821.94;4494599;31;34188;-84
2023/06/18 09:21:00;;;;;;;;;;;;;;;28.42;31.50;99821.34;4485461;32;34296;-82
2023/06/18 09:23:27;;;;;;;;;;;;;;;28.48;30.28;99824.75;4485560;32;34244;-82
2023/06/18 09:25:55;;;;;;;;;;;;;;;28.41;31.78;99827.59;4485599;32;34021;-84
2023/06/18 09:28:26;;;;;;;;;;;;;;;28.35;32.73;99819.75;4485644;32;34229;-86
2023/06/18 09:30:54;;;;;;;;;;;;;;;28.34;31.59;99828.69;4487673;31;33854;-82
2023/06/18 09:33:28;;;;;;;;;;;;;;;28.23;32.02;99833.44;4485477;32;34970;-83
2023/06/18 09:36:03;;;;;;;;;;;;;;;28.52;30.45;99831.78;4485952;32;33014;-85
2023/06/18 09:38:37;;;;;;;;;;;;;;;27.84;29.63;99823.75;4494569;31;34769;-82
2023/06/18 09:41:16;;;;;;;;;;;;;;;27.86;30.58;99826.37;4487404;31;33770;-82
2023/06/18 09:43:46;;;;;;;;;;;;;;;27.59;32.83;99834.16;4485914;31;33947;-83
2023/06/18 09:46:14;;;;;;;;;;;;;;;28.14;31.29;99831.00;4491535;31;32455;-86
2023/06/18 09:48:43;;;;;;;;;;;;;;;28.70;31.07;99831.22;4486962;31;33992;-82
2023/06/18 09:51:11;;;;;;;;;;;;;;;28.99;31.27;99825.06;4490664;31;33909;-84
2023/06/18 09:53:38;;;;;;;;;;;;;;;27.53;33.70;99828.97;4496861;31;33445;-83
2023/06/18 09:56:09;;;;;;;;;;;;;;;28.67;32.26;99823.34;4478995;32;33149;-85
2023/06/18 09:58:46;;;;;;;;;;;;;;;28.98;32.91;99823.28;4493464;31;35046;-83
2023/06/18 10:01:15;;;;;;;;;;;;;;;28.66;33.15;99829.56;4491840;31;35055;-84
2023/06/18 10:03:43;;;;;;;;;;;;;;;28.91;32.31;99834.19;4485581;31;35026;-82
2023/06/18 10:06:20;;;;;;;;;;;;;;;29.46;31.29;99826.28;4474495;31;33386;-84
2023/06/18 10:08:52;;;;;;;;;;;;;;;29.41;30.77;99823.75;4486603;31;33733;-82
2023/06/18 10:11:20;;;;;;;;;;;;;;;29.84;27.45;99817.00;4488166;31;35101;-82
2023/06/18 10:13:48;;;;;;;;;;;;;;;29.78;29.35;99818.09;4496894;31;34639;-83
2023/06/18 10:16:17;;;;;;;;;;;;;;;29.21;31.00;99819.94;4477998;32;32833;-82
2023/06/18 10:19:13;;;;;;;;;;;;;;;29.46;30.90;99821.81;4485739;32;34545;-82
2023/06/18 10:21:44;;;;;;;;;;;;;;;27.89;31.68;99814.81;4469062;32;34123;-83
2023/06/18 10:24:11;;;;;;;;;;;;;;;28.43;31.83;99823.09;4485483;32;34050;-83
2023/06/18 10:26:39;;;;;;;;;;;;;;;27.15;32.93;99825.41;4485274;32;33084;-84
2023/06/18 10:29:09;;;;;;;;;;;;;;;27.52;33.60;99826.34;4486268;31;33819;-83
2023/06/18 10:31:37;;;;;;;;;;;;;;;28.39;31.18;99826.75;4485602;32;34498;-84
2023/06/18 10:34:05;;;;;;;;;;;;;;;29.01;29.57;99825.87;4479416;32;34492;-83
2023/06/18 10:36:32;;;;;;;;;;;;;;;29.13;30.32;99824.66;4487328;31;33585;-85
2023/06/18 10:39:00;;;;;;;;;;;;;;;28.83;30.42;99829.09;4474830;31;33477;-84
2023/06/18 10:41:27;;;;;;;;;;;;;;;27.51;32.84;99825.47;4485370;31;34253;-83
2023/06/18 10:43:55;;;;;;;;;;;;;;;27.47;32.04;99829.12;4476101;31;33253;-80
2023/06/18 10:46:22;;;;;;;;;;;;;;;28.17;31.34;99820.28;4491366;31;33389;-83
2023/06/18 10:49:08;;;;;;;;;;;;;;;28.37;32.11;99828.56;4485091;32;34304;-83
2023/06/18 10:51:36;;;;;;;;;;;;;;;27.76;32.64;99825.75;4459777;32;789987;-83
2023/06/18 10:54:30;;;;;;;;;;;;;;;28.37;31.51;99817.91;4490292;31;34163;-81
2023/06/18 10:56:58;;;;;;;;;;;;;;;27.80;33.20;99816.78;4493058;31;32913;-84
2023/06/18 10:59:34;;;;;;;;;;;;;;;29.05;31.46;99813.28;4498838;31;34610;-85
2023/06/18 11:02:02;;;;;;;;;;;;;;;29.31;29.46;99817.00;4484770;31;34015;-87
2023/06/18 11:04:31;;;;;;;;;;;;;;;29.25;30.01;99811.84;4486143;31;34372;-86
2023/06/18 11:13:16;;;;;;;;;;;;;;;28.67;32.06;99823.34;4485185;31;35938;-84
2023/06/18 11:16:02;;;;;;;;;;;;;;;28.29;32.49;99819.06;4485872;32;33925;-84
2023/06/18 11:18:36;;;;;;;;;;;;;;;28.77;31.86;99811.47;4458802;32;32228;-83
2023/06/18 11:21:10;;;;;;;;;;;;;;;27.79;32.74;99808.81;4497797;31;33766;-83
2023/06/18 11:23:46;;;;;;;;;;;;;;;27.81;32.67;99807.00;4471417;32;34469;-84
2023/06/18 11:26:14;;;;;;;;;;;;;;;27.95;33.03;99806.66;4489945;31;33573;-85
2023/06/18 11:28:42;;;;;;;;;;;;;;;27.96;32.89;99800.44;4494967;31;33599;-83
2023/06/18 11:31:10;;;;;;;;;;;;;;;28.41;32.60;99798.28;4487001;31;33790;-87
2023/06/18 11:33:38;;;;;;;;;;;;;;;29.36;32.35;99796.34;4478482;31;34950;-85
2023/06/18 11:36:12;;;;;;;;;;;;;;;29.19;31.36;99808.44;4490953;31;33846;-84
2023/06/18 11:38:40;;;;;;;;;;;;;;;28.94;32.14;99807.44;4491064;31;33289;-85
2023/06/18 11:41:07;;;;;;;;;;;;;;;29.14;31.29;99794.38;4494870;31;33732;-85
2023/06/18 11:43:49;;;;;;;;;;;;;;;28.80;32.53;99792.75;4484472;32;33857;-83
2023/06/18 11:46:35;;;;;;;;;;;;;;;28.06;34.08;99793.06;4486352;31;34906;-86
2023/06/18 11:49:03;;;;;;;;;;;;;;;29.04;32.95;99787.56;4492869;31;33111;-83
2023/06/18 11:51:30;;;;;;;;;;;;;;;28.83;32.73;99778.44;4495717;31;34329;-85
2023/06/18 11:53:58;;;;;;;;;;;;;;;29.09;32.30;99784.72;4491949;31;33637;-84
2023/06/18 11:56:27;;;;;;;;;;;;;;;29.52;32.16;99784.25;4488677;31;33336;-83
2023/06/18 11:58:55;;;;;;;;;;;;;;;30.01;32.64;99784.38;4481706;31;33504;-85
2023/06/18 12:04:41;;;;;;;;;;;;;;;29.64;31.79;99782.97;4483316;32;34548;-84
2023/06/18 12:07:48;;;;;;;;;;;;;;;28.44;33.48;99776.00;4460418;31;34007;-84
2023/06/18 12:10:16;;;;;;;;;;;;;;;29.50;32.91;99771.91;4492528;31;33166;-84
2023/06/18 12:12:50;;;;;;;;;;;;;;;29.81;32.54;99774.41;4487600;31;33564;-85
2023/06/18 12:15:19;;;;;;;;;;;;;;;28.91;33.35;99770.19;4496756;31;34801;-84